Time;durP1;ratioP1;P1;durP2;ratioP2;P2;SDS_P1;SDS_P2;PMS_P1;PMS_P2;Temp;Humidity;BMP_temperature;BMP_pressure;BME280_temperature;BME280_humidity;BME280_pressure;Samples;Min_cycle;Max_cycle;Signal;HPM_P1;HPM_P2
2023/04/20 00:00:28;;;;;;;12.43;5.32;;;;;;;11.97;63.17;98196.75;5111034;28;20028;-48
2023/04/20 00:02:53;;;;;;;10.93;5.22;;;;;;;12.01;63.25;98191.81;5094893;28;20024;-49
2023/04/20 00:05:19;;;;;;;11.88;4.43;;;;;;;12.06;63.02;98188.53;5093770;28;20027;-49
2023/04/20 00:07:45;;;;;;;8.23;4.82;;;;;;;12.17;62.53;98190.41;5110661;28;20031;-49
2023/04/20 00:10:10;;;;;;;10.85;4.55;;;;;;;12.31;62.53;98186.56;5094887;28;20023;-49
2023/04/20 00:12:36;;;;;;;7.40;4.70;;;;;;;12.42;62.06;98184.22;5110570;28;20024;-49
2023/04/20 00:15:02;;;;;;;7.05;5.00;;;;;;;12.43;61.21;98183.97;5110483;28;20039;-49
2023/04/20 00:17:28;;;;;;;7.80;5.43;;;;;;;12.45;61.36;98173.22;5094745;28;20482;-49
2023/04/20 00:19:54;;;;;;;4.85;4.35;;;;;;;12.48;61.43;98173.59;5110390;28;20031;-48
2023/04/20 00:22:19;;;;;;;29.83;6.90;;;;;;;12.45;61.39;98170.59;5110643;28;20020;-49
2023/04/20 00:24:45;;;;;;;8.63;4.93;;;;;;;12.38;61.16;98175.97;5094546;28;20048;-49
2023/04/20 00:27:11;;;;;;;7.93;5.63;;;;;;;12.30;61.71;98174.44;5110207;28;20047;-49
2023/04/20 00:29:36;;;;;;;9.52;5.43;;;;;;;12.16;62.05;98165.13;5093233;28;20106;-48
2023/04/20 00:32:02;;;;;;;7.28;4.93;;;;;;;12.16;62.50;98165.13;5094249;28;20097;-49
2023/04/20 00:34:28;;;;;;;14.07;5.80;;;;;;;12.15;62.33;98172.22;5110091;28;20569;-49
2023/04/20 00:36:53;;;;;;;27.30;23.58;;;;;;;11.99;62.51;98157.88;5094220;28;20050;-49
2023/04/20 00:39:19;;;;;;;10.57;7.28;;;;;;;11.82;63.00;98159.47;5093456;28;20027;-49
2023/04/20 00:41:45;;;;;;;15.35;5.93;;;;;;;11.65;63.18;98155.81;5094234;28;20016;-48
2023/04/20 00:44:12;;;;;;;20.25;6.25;;;;;;;11.66;63.14;98158.22;5094187;28;20074;-49
2023/04/20 00:46:39;;;;;;;22.23;6.05;;;;;;;11.75;63.64;98159.56;5094142;28;20020;-48
2023/04/20 00:49:06;;;;;;;11.68;5.53;;;;;;;11.90;63.53;98150.50;5094081;28;20106;-49
2023/04/20 00:51:34;;;;;;;12.10;6.05;;;;;;;11.99;62.86;98152.63;5094319;28;20389;-49
2023/04/20 00:54:00;;;;;;;9.95;5.57;;;;;;;11.96;62.71;98153.03;5093031;28;20040;-49
2023/04/20 00:56:26;;;;;;;9.35;5.18;;;;;;;11.85;62.81;98143.25;5093985;28;20024;-49
2023/04/20 00:58:52;;;;;;;6.97;5.55;;;;;;;11.73;62.63;98147.63;5109586;28;20516;-49
2023/04/20 01:01:18;;;;;;;9.20;5.93;;;;;;;11.66;63.33;98141.66;5109656;28;20498;-49
2023/04/20 01:03:44;;;;;;;16.42;6.05;;;;;;;11.57;63.24;98135.91;5109382;28;20016;-49
2023/04/20 01:06:12;;;;;;;11.90;6.00;;;;;;;11.55;63.87;98141.38;5075615;28;20078;-49
2023/04/20 01:08:46;;;;;;;12.02;6.18;;;;;;;11.49;63.98;98137.00;5092518;28;20123;-49
2023/04/20 01:11:12;;;;;;;9.02;6.32;;;;;;;11.34;63.99;98137.34;5092378;28;20035;-49
2023/04/20 01:13:38;;;;;;;8.27;5.43;;;;;;;11.22;64.49;98135.69;5093623;28;20024;-49
2023/04/20 01:16:04;;;;;;;9.07;5.40;;;;;;;11.21;65.51;98140.13;5109313;28;20028;-49
2023/04/20 01:18:40;;;;;;;10.63;5.78;;;;;;;11.15;65.20;98128.69;5093579;28;20423;-49
2023/04/20 01:21:06;;;;;;;9.20;6.03;;;;;;;11.08;65.70;98127.94;5093540;28;20069;-49
2023/04/20 01:23:34;;;;;;;12.10;6.85;;;;;;;10.99;66.18;98124.78;5093416;28;20409;-49
2023/04/20 01:25:59;;;;;;;7.97;5.75;;;;;;;11.05;65.83;98117.88;5093441;28;20078;-49
2023/04/20 01:28:25;;;;;;;9.80;6.45;;;;;;;10.90;66.31;98118.19;5093445;28;20020;-49
2023/04/20 01:30:51;;;;;;;8.82;5.60;;;;;;;10.86;66.95;98121.47;5093570;28;20099;-49
2023/04/20 01:33:16;;;;;;;31.17;7.03;;;;;;;10.98;66.35;98120.53;5093159;28;20124;-49
2023/04/20 01:35:42;;;;;;;28.15;7.45;;;;;;;10.89;66.92;98106.09;5093222;28;20501;-49
2023/04/20 01:38:08;;;;;;;33.03;7.28;;;;;;;10.87;67.07;98105.53;5108893;28;20031;-49
2023/04/20 01:40:34;;;;;;;10.20;5.97;;;;;;;10.96;66.99;98100.78;5108795;28;20524;-49
2023/04/20 01:42:59;;;;;;;10.35;6.78;;;;;;;10.80;66.90;98102.13;5092993;28;20020;-49
2023/04/20 01:45:25;;;;;;;8.13;6.45;;;;;;;10.59;67.25;98100.72;5108686;28;20405;-48
2023/04/20 01:47:51;;;;;;;11.48;5.53;;;;;;;10.53;67.60;98105.00;5108675;28;20032;-49
2023/04/20 01:50:16;;;;;;;12.95;7.75;;;;;;;10.54;67.68;98108.41;5108305;28;20444;-49
2023/04/20 01:52:42;;;;;;;8.15;7.30;;;;;;;10.41;67.88;98103.28;5092914;28;20111;-49
2023/04/20 01:55:08;;;;;;;11.55;6.07;;;;;;;10.25;68.30;98109.81;5092855;28;20019;-49
2023/04/20 01:57:35;;;;;;;12.98;6.20;;;;;;;10.15;68.94;98110.28;5092783;28;20031;-48
2023/04/20 02:00:00;;;;;;;14.25;6.03;;;;;;;10.12;68.80;98098.41;5091494;28;20024;-49
2023/04/20 02:02:26;;;;;;;14.38;6.70;;;;;;;10.16;68.87;98099.59;5092705;28;20034;-49
2023/04/20 02:04:52;;;;;;;7.75;6.32;;;;;;;10.22;68.81;98102.38;5091400;28;20035;-49
2023/04/20 02:07:18;;;;;;;9.20;5.57;;;;;;;10.26;68.43;98096.50;5108336;28;20485;-49
2023/04/20 02:09:44;;;;;;;19.75;5.88;;;;;;;10.38;68.62;98099.25;5092607;28;20106;-49
2023/04/20 02:12:09;;;;;;;15.05;7.40;;;;;;;10.49;68.27;98098.56;5092607;28;20115;-49
2023/04/20 02:14:35;;;;;;;12.85;6.05;;;;;;;10.49;67.83;98095.94;5092559;28;20443;-49
2023/04/20 02:17:01;;;;;;;10.52;6.57;;;;;;;10.53;67.89;98091.88;5108134;28;20089;-49
2023/04/20 02:19:26;;;;;;;11.13;5.45;;;;;;;10.63;67.76;98095.84;5108112;28;20502;-49
2023/04/20 02:21:52;;;;;;;28.40;7.13;;;;;;;10.57;67.61;98094.88;5108281;28;20024;-49
2023/04/20 02:24:17;;;;;;;10.25;5.88;;;;;;;10.50;67.37;98094.94;5092291;28;20445;-49
2023/04/20 02:26:43;;;;;;;7.65;6.03;;;;;;;10.49;67.36;98092.53;5107928;28;20032;-49
2023/04/20 02:29:09;;;;;;;7.75;6.47;;;;;;;10.38;67.49;98086.13;5092256;28;20035;-49
2023/04/20 02:31:35;;;;;;;8.20;6.43;;;;;;;10.22;68.13;98097.13;5107648;28;20064;-49
2023/04/20 02:34:01;;;;;;;12.20;6.65;;;;;;;10.04;68.80;98089.97;5092235;28;20024;-49
2023/04/20 02:36:27;;;;;;;8.20;6.07;;;;;;;9.86;68.83;98086.25;5092163;28;20081;-49
2023/04/20 02:38:52;;;;;;;12.25;6.50;;;;;;;9.85;69.46;98089.88;5092156;28;20028;-49
2023/04/20 02:41:18;;;;;;;9.48;6.30;;;;;;;9.81;69.65;98093.94;5108114;28;20032;-49
2023/04/20 02:43:43;;;;;;;16.30;7.10;;;;;;;9.89;69.76;98087.66;5091999;28;20428;-48
2023/04/20 02:46:09;;;;;;;14.18;6.78;;;;;;;10.00;69.53;98089.63;5092092;28;20024;-48
2023/04/20 02:48:35;;;;;;;11.95;6.47;;;;;;;10.04;69.46;98089.97;5107689;28;20032;-49
2023/04/20 02:51:00;;;;;;;18.00;7.10;;;;;;;10.10;69.31;98092.56;5091941;28;20028;-49
2023/04/20 02:53:26;;;;;;;13.15;5.90;;;;;;;10.13;69.22;98091.34;5107682;28;20413;-49
2023/04/20 02:55:52;;;;;;;13.55;6.15;;;;;;;10.18;69.08;98089.69;5107569;28;20098;-49
2023/04/20 02:58:17;;;;;;;17.48;7.00;;;;;;;10.24;69.05;98088.06;5107592;28;20024;-49
2023/04/20 03:00:43;;;;;;;7.97;6.18;;;;;;;10.31;68.88;98093.25;5091218;28;20035;-49
2023/04/20 03:03:09;;;;;;;11.00;6.85;;;;;;;10.42;68.81;98083.91;5091774;28;20028;-49
2023/04/20 03:05:35;;;;;;;8.50;5.18;;;;;;;10.51;68.70;98085.25;5091826;28;20400;-49
2023/04/20 03:08:03;;;;;;;12.50;5.80;;;;;;;10.57;68.19;98085.19;5091920;28;20040;-49
2023/04/20 03:10:29;;;;;;;11.00;5.60;;;;;;;10.63;67.82;98080.91;5091746;28;20034;-49
2023/04/20 03:12:55;;;;;;;11.05;6.78;;;;;;;10.65;67.72;98078.06;5107447;28;20085;-49
2023/04/20 03:15:22;;;;;;;17.77;6.60;;;;;;;10.79;68.03;98080.34;5107446;28;20036;-49
2023/04/20 03:17:47;;;;;;;16.23;6.47;;;;;;;11.03;67.77;98071.81;5091782;28;20032;-49
2023/04/20 03:20:13;;;;;;;9.05;7.97;;;;;;;11.28;67.10;98077.03;5107390;28;20032;-49
2023/04/20 03:22:39;;;;;;;17.15;7.00;;;;;;;11.44;66.63;98073.00;5073628;28;20028;-49
2023/04/20 03:25:05;;;;;;;10.52;7.15;;;;;;;11.60;66.72;98072.38;5090319;28;20035;-49
2023/04/20 03:27:30;;;;;;;18.40;7.43;;;;;;;11.71;65.42;98082.16;5091631;28;20036;-49
2023/04/20 03:29:56;;;;;;;10.02;6.72;;;;;;;11.82;64.88;98085.84;5107339;28;20398;-49
2023/04/20 03:32:22;;;;;;;13.20;6.82;;;;;;;11.87;64.49;98080.75;5091459;28;20586;-49
2023/04/20 03:34:47;;;;;;;14.30;7.05;;;;;;;11.84;64.16;98083.81;5090480;28;20055;-49
2023/04/20 03:37:14;;;;;;;15.00;6.82;;;;;;;11.80;63.93;98086.06;5091651;28;20020;-49
2023/04/20 03:39:39;;;;;;;16.25;7.60;;;;;;;11.87;64.21;98085.16;5091615;28;20405;-49
2023/04/20 03:42:05;;;;;;;14.93;7.55;;;;;;;11.99;64.07;98092.13;5107205;28;20054;-49
2023/04/20 03:44:31;;;;;;;18.35;8.18;;;;;;;12.07;63.88;98082.28;5091407;28;20024;-49
2023/04/20 03:46:56;;;;;;;11.10;6.85;;;;;;;12.10;63.74;98085.28;5090216;28;20107;-49
2023/04/20 03:49:26;;;;;;;12.27;7.70;;;;;;;12.15;63.49;98085.44;5091566;28;20035;-49
2023/04/20 03:51:52;;;;;;;13.13;7.03;;;;;;;12.13;63.17;98089.28;5091407;28;20111;-49
2023/04/20 03:54:17;;;;;;;18.52;8.55;;;;;;;12.07;63.50;98090.97;5107115;28;20103;-49
2023/04/20 03:56:44;;;;;;;16.35;6.78;;;;;;;12.05;63.31;98081.72;5091305;28;20512;-49
2023/04/20 03:59:10;;;;;;;21.45;7.75;;;;;;;12.06;63.08;98091.22;5091355;28;20497;-49
2023/04/20 04:01:39;;;;;;;20.13;8.27;;;;;;;12.02;63.68;98082.97;5091354;28;20055;-49
2023/04/20 04:04:05;;;;;;;15.57;7.70;;;;;;;11.98;63.68;98079.19;5073534;28;20042;-49
2023/04/20 04:06:31;;;;;;;14.57;8.25;;;;;;;11.90;63.57;98082.94;5091281;28;20024;-49
2023/04/20 04:08:56;;;;;;;14.80;7.20;;;;;;;11.83;63.34;98073.50;5090048;28;20105;-46
2023/04/20 04:11:24;;;;;;;14.93;8.07;;;;;;;11.73;63.81;98072.22;5091223;28;20043;-48
2023/04/20 04:13:50;;;;;;;22.92;9.32;;;;;;;11.73;64.27;98064.34;5094391;28;20483;-48
2023/04/20 04:16:15;;;;;;;21.85;7.97;;;;;;;11.85;64.46;98068.81;5110446;28;20118;-49
2023/04/20 04:18:43;;;;;;;19.02;8.73;;;;;;;11.96;64.47;98068.09;5110442;28;20046;-49
2023/04/20 04:21:09;;;;;;;13.07;8.43;;;;;;;11.99;64.41;98067.63;5094978;28;20050;-49
2023/04/20 04:23:36;;;;;;;27.52;9.43;;;;;;;11.99;64.37;98078.97;5094574;28;20588;-49
2023/04/20 04:26:03;;;;;;;18.70;8.25;;;;;;;12.00;63.95;98079.78;5110307;28;20028;-49
2023/04/20 04:28:30;;;;;;;11.73;8.73;;;;;;;12.03;63.67;98079.31;5094837;28;20028;-49
2023/04/20 04:30:56;;;;;;;26.60;8.63;;;;;;;12.03;63.66;98081.94;5110202;28;20023;-48
2023/04/20 04:33:22;;;;;;;20.65;9.23;;;;;;;12.01;63.66;98086.63;5094381;28;20118;-48
2023/04/20 04:35:48;;;;;;;17.65;8.77;;;;;;;12.02;63.66;98090.88;5094362;28;20405;-48
2023/04/20 04:38:14;;;;;;;19.13;8.95;;;;;;;12.02;63.43;98085.59;5094364;28;20031;-48
2023/04/20 04:40:40;;;;;;;14.70;8.73;;;;;;;12.06;63.27;98080.72;5094188;28;20028;-49
2023/04/20 04:43:09;;;;;;;24.38;10.25;;;;;;;12.10;63.22;98087.13;5094267;28;20097;-49
2023/04/20 04:45:39;;;;;;;24.85;9.98;;;;;;;11.94;63.05;98084.09;5094195;28;20048;-48
2023/04/20 04:48:05;;;;;;;16.52;9.38;;;;;;;11.89;63.55;98088.41;5094197;28;20099;-49
2023/04/20 04:50:31;;;;;;;12.57;9.23;;;;;;;11.92;63.78;98087.97;5109863;28;20066;-49
2023/04/20 04:52:56;;;;;;;19.52;9.88;;;;;;;11.92;63.45;98088.78;5092895;28;20024;-49
2023/04/20 04:55:22;;;;;;;26.45;10.02;;;;;;;11.95;63.88;98087.50;5109787;28;20070;-49
2023/04/20 04:57:48;;;;;;;19.00;9.68;;;;;;;11.99;63.49;98086.88;5094044;28;20073;-49
2023/04/20 05:00:14;;;;;;;33.90;11.18;;;;;;;11.96;63.24;98079.41;5109627;28;20118;-49
2023/04/20 05:02:40;;;;;;;22.38;10.10;;;;;;;12.01;63.65;98081.34;5092595;28;20028;-49
2023/04/20 05:05:07;;;;;;;16.20;9.98;;;;;;;12.05;63.64;98093.03;5109476;28;20027;-49
2023/04/20 05:07:33;;;;;;;24.90;10.20;;;;;;;12.05;63.76;98087.78;5092530;28;20110;-49
2023/04/20 05:09:59;;;;;;;27.48;10.60;;;;;;;12.16;63.35;98102.78;5093859;28;20027;-49
2023/04/20 05:12:24;;;;;;;35.13;12.30;;;;;;;12.22;63.37;98108.19;5093734;28;20078;-49
2023/04/20 05:14:51;;;;;;;28.90;10.65;;;;;;;12.34;63.31;98106.41;5092330;28;20493;-49
2023/04/20 05:17:17;;;;;;;21.38;9.50;;;;;;;12.45;62.78;98104.81;5093603;28;20022;-49
2023/04/20 05:19:42;;;;;;;17.55;9.68;;;;;;;12.51;62.66;98106.53;5109333;28;20023;-49
2023/04/20 05:22:08;;;;;;;24.30;10.02;;;;;;;12.54;61.98;98111.34;5109484;28;20434;-49
2023/04/20 05:24:34;;;;;;;21.35;10.82;;;;;;;12.56;61.89;98107.47;5091440;28;20027;-48
2023/04/20 05:27:00;;;;;;;22.05;10.60;;;;;;;12.48;61.60;98112.25;5093347;28;20020;-49
2023/04/20 05:29:26;;;;;;;14.70;9.38;;;;;;;12.34;62.13;98109.81;5075275;28;20085;-49
2023/04/20 05:31:51;;;;;;;22.23;11.10;;;;;;;12.44;62.39;98119.00;5093226;28;20048;-48
2023/04/20 05:34:17;;;;;;;17.73;10.35;;;;;;;12.42;61.94;98113.16;5093367;28;20035;-49
2023/04/20 05:36:43;;;;;;;19.30;11.27;;;;;;;12.44;62.11;98119.78;5092025;28;20027;-49
2023/04/20 05:39:09;;;;;;;23.92;12.05;;;;;;;12.31;61.92;98125.25;5093229;28;20461;-49
2023/04/20 05:41:35;;;;;;;25.90;12.20;;;;;;;12.29;62.11;98125.47;5093033;28;20024;-48
2023/04/20 05:44:00;;;;;;;29.70;10.75;;;;;;;12.40;62.05;98118.66;5093033;28;20028;-49
2023/04/20 05:46:27;;;;;;;27.58;11.60;;;;;;;12.50;62.00;98116.25;5093035;28;20020;-48
2023/04/20 05:48:54;;;;;;;21.35;11.77;;;;;;;12.62;61.93;98123.38;5092936;28;20027;-49
2023/04/20 05:51:20;;;;;;;19.08;12.13;;;;;;;12.69;61.07;98116.16;5074773;28;20115;-49
2023/04/20 05:53:46;;;;;;;18.83;11.20;;;;;;;12.68;60.96;98112.72;5092882;28;20020;-49
2023/04/20 05:56:13;;;;;;;16.75;11.15;;;;;;;12.71;60.88;98119.38;5092895;28;20031;-49
2023/04/20 05:58:40;;;;;;;21.33;10.95;;;;;;;12.76;61.33;98114.22;5093076;28;20417;-48
2023/04/20 06:01:06;;;;;;;21.95;11.43;;;;;;;12.84;60.73;98115.69;5092860;28;20060;-49
2023/04/20 06:03:32;;;;;;;24.80;12.27;;;;;;;12.90;60.75;98114.81;5092905;28;20069;-48
2023/04/20 06:05:57;;;;;;;19.75;11.30;;;;;;;12.96;60.15;98117.31;5092703;28;20046;-49
2023/04/20 06:08:23;;;;;;;25.17;13.23;;;;;;;12.88;59.65;98120.31;5092689;28;20024;-49
2023/04/20 06:10:56;;;;;;;37.53;14.73;;;;;;;12.49;60.77;98122.53;5092851;28;20028;-49
2023/04/20 06:13:21;;;;;;;31.10;13.50;;;;;;;12.39;62.16;98122.28;5092504;28;20024;-49
2023/04/20 06:15:47;;;;;;;20.85;11.48;;;;;;;12.59;61.97;98114.09;5092548;28;20134;-48
2023/04/20 06:18:13;;;;;;;38.92;14.05;;;;;;;12.76;60.88;98115.03;5091140;28;20035;-49
2023/04/20 06:20:39;;;;;;;15.05;12.13;;;;;;;12.82;60.85;98110.69;5091126;28;20028;-46
2023/04/20 06:23:05;;;;;;;61.30;16.75;;;;;;;12.88;60.72;98106.34;5092340;28;20024;-46
2023/04/20 06:25:30;;;;;;;35.50;14.20;;;;;;;12.88;61.17;98109.78;5092292;28;20036;-46
2023/04/20 06:27:56;;;;;;;31.25;13.05;;;;;;;12.93;61.43;98111.72;5092390;28;20490;-46
2023/04/20 06:30:22;;;;;;;24.75;12.30;;;;;;;12.93;60.88;98109.06;5092239;28;20030;-46
2023/04/20 06:32:47;;;;;;;30.27;12.95;;;;;;;12.84;61.01;98110.44;5090719;28;20084;-46
2023/04/20 06:35:13;;;;;;;32.67;15.32;;;;;;;12.95;61.00;98112.28;5073724;28;20020;-46
2023/04/20 06:37:39;;;;;;;20.80;12.48;;;;;;;13.10;60.56;98111.81;5091800;28;20489;-46
2023/04/20 06:40:09;;;;;;;19.38;12.55;;;;;;;13.23;60.27;98113.41;5090901;28;20028;-46
2023/04/20 06:42:35;;;;;;;17.92;12.57;;;;;;;13.38;59.48;98105.84;5090766;28;20024;-46
2023/04/20 06:45:01;;;;;;;23.45;11.80;;;;;;;13.47;59.53;98103.66;5091986;28;20447;-46
2023/04/20 06:47:30;;;;;;;26.13;12.32;;;;;;;13.63;58.49;98099.50;5090737;28;20020;-46
2023/04/20 06:50:00;;;;;;;19.25;12.20;;;;;;;13.62;58.51;98103.16;5091960;28;20055;-46
2023/04/20 06:52:27;;;;;;;26.00;12.20;;;;;;;13.71;58.12;98099.13;5092059;28;20020;-46
2023/04/20 06:54:52;;;;;;;26.80;13.27;;;;;;;13.93;57.47;98094.78;5091937;28;20061;-46
2023/04/20 06:57:18;;;;;;;20.40;13.75;;;;;;;13.80;57.38;98095.03;5092005;28;20032;-47
2023/04/20 06:59:44;;;;;;;39.50;13.63;;;;;;;13.53;58.23;98086.91;5091937;28;20431;-46
2023/04/20 07:02:10;;;;;;;53.33;14.43;;;;;;;13.67;58.33;98090.88;5090554;28;20081;-47
2023/04/20 07:04:35;;;;;;;45.47;14.20;;;;;;;13.78;58.03;98087.38;5090757;28;20505;-46
2023/04/20 07:07:01;;;;;;;49.40;14.32;;;;;;;13.64;58.01;98091.31;5090509;28;20051;-46
2023/04/20 07:09:27;;;;;;;31.60;14.05;;;;;;;13.46;58.46;98089.69;5091914;28;20482;-46
2023/04/20 07:11:55;;;;;;;62.00;14.93;;;;;;;13.26;59.18;98087.41;5091867;28;20031;-46
2023/04/20 07:14:20;;;;;;;45.40;12.85;;;;;;;13.30;59.29;98095.66;5092050;28;20043;-46
2023/04/20 07:16:46;;;;;;;28.30;13.13;;;;;;;13.48;58.79;98099.97;5090460;28;20485;-47
2023/04/20 07:19:12;;;;;;;28.73;12.63;;;;;;;13.43;58.43;98098.03;5092092;28;20254;-46
2023/04/20 07:21:38;;;;;;;24.05;12.55;;;;;;;13.48;58.42;98094.69;5090406;28;20439;-46
2023/04/20 07:24:04;;;;;;;19.73;11.50;;;;;;;13.52;57.99;98104.56;5091610;28;20026;-46
2023/04/20 07:26:30;;;;;;;25.20;12.73;;;;;;;13.54;57.84;98096.41;5073706;28;20020;-46
2023/04/20 07:28:56;;;;;;;24.98;12.88;;;;;;;13.66;57.91;98102.47;5091725;28;20020;-46
2023/04/20 07:31:21;;;;;;;20.95;12.13;;;;;;;13.85;57.44;98094.38;5091390;28;20609;-48
2023/04/20 07:33:47;;;;;;;34.47;13.57;;;;;;;13.91;56.87;98088.94;5090418;28;20024;-46
2023/04/20 07:36:13;;;;;;;31.92;13.60;;;;;;;14.11;56.87;98088.50;5091598;28;20366;-46
2023/04/20 07:38:38;;;;;;;23.48;11.95;;;;;;;14.40;56.31;98088.44;5073549;28;20028;-46
2023/04/20 07:41:10;;;;;;;21.02;12.43;;;;;;;14.55;55.51;98091.31;5091623;28;20107;-46
2023/04/20 07:43:36;;;;;;;30.40;13.27;;;;;;;14.58;55.26;98090.06;5091465;28;20024;-47
2023/04/20 07:46:02;;;;;;;22.23;12.70;;;;;;;14.46;55.19;98092.75;5090332;28;20454;-47
2023/04/20 07:48:28;;;;;;;26.58;11.65;;;;;;;14.35;55.49;98093.66;5093068;28;20016;-46
2023/04/20 07:50:53;;;;;;;50.92;14.40;;;;;;;14.19;55.57;98093.38;5093987;28;20047;-46
2023/04/20 07:53:19;;;;;;;33.90;15.27;;;;;;;14.18;55.91;98088.34;5095291;28;20402;-47
2023/04/20 07:55:45;;;;;;;33.75;13.68;;;;;;;14.07;55.72;98087.38;5095258;28;20048;-46
2023/04/20 07:58:11;;;;;;;23.70;13.55;;;;;;;14.04;56.25;98087.81;5093912;28;20032;-47
2023/04/20 08:00:37;;;;;;;21.17;15.40;;;;;;;14.06;56.25;98085.75;5095124;28;20539;-47
2023/04/20 08:03:04;;;;;;;26.20;12.85;;;;;;;14.19;56.08;98080.19;5095105;28;20090;-47
2023/04/20 08:05:29;;;;;;;29.42;12.75;;;;;;;14.34;55.80;98086.75;5093654;28;20054;-46
2023/04/20 08:07:55;;;;;;;22.05;12.73;;;;;;;14.42;55.12;98091.63;5093721;28;20106;-46
2023/04/20 08:10:21;;;;;;;29.58;13.30;;;;;;;14.36;55.22;98093.38;5093656;28;20062;-46
2023/04/20 08:12:46;;;;;;;21.67;13.68;;;;;;;14.41;55.43;98102.44;5094929;28;20493;-46
2023/04/20 08:15:13;;;;;;;69.07;14.55;;;;;;;14.52;54.87;98098.91;5093528;28;20020;-46
2023/04/20 08:17:39;;;;;;;113.60;17.42;;;;;;;14.46;54.85;98105.94;5094746;28;20031;-46
2023/04/20 08:20:05;;;;;;;101.18;15.27;;;;;;;14.27;55.15;98110.66;5095097;28;20024;-46
2023/04/20 08:22:32;;;;;;;43.60;12.10;;;;;;;14.14;55.43;98124.16;5093832;28;20043;-46
2023/04/20 08:24:57;;;;;;;40.22;14.23;;;;;;;14.05;55.71;98117.69;5094627;28;20024;-46
2023/04/20 08:27:24;;;;;;;37.03;12.82;;;;;;;13.98;55.84;98131.81;5094920;28;20020;-46
2023/04/20 08:29:50;;;;;;;26.02;11.07;;;;;;;14.04;56.45;98126.63;5094734;28;20536;-46
2023/04/20 08:32:17;;;;;;;16.13;9.68;;;;;;;14.18;55.81;98120.00;5094411;28;20074;-46
2023/04/20 08:34:43;;;;;;;19.50;10.25;;;;;;;14.12;55.05;98134.94;5094745;28;20107;-46
2023/04/20 08:37:09;;;;;;;35.42;11.35;;;;;;;13.89;55.94;98140.34;5093148;28;20444;-46
2023/04/20 08:39:35;;;;;;;25.60;9.95;;;;;;;13.88;57.25;98136.06;5094717;28;20031;-46
2023/04/20 08:42:02;;;;;;;14.07;9.65;;;;;;;13.79;58.23;98141.72;5094347;28;20020;-47
2023/04/20 08:44:27;;;;;;;32.47;11.07;;;;;;;13.61;59.54;98141.09;5094301;28;20020;-46
2023/04/20 08:46:53;;;;;;;35.17;10.85;;;;;;;13.33;60.62;98148.69;5093030;28;20378;-46
2023/04/20 08:49:20;;;;;;;24.25;11.40;;;;;;;13.12;63.05;98134.28;5092902;28;20028;-47
2023/04/20 08:51:47;;;;;;;23.52;10.40;;;;;;;12.97;63.84;98133.91;5092924;28;20036;-46
2023/04/20 08:54:13;;;;;;;22.75;11.52;;;;;;;12.74;66.11;98132.88;5092994;28;20058;-47
2023/04/20 08:56:42;;;;;;;33.58;12.02;;;;;;;12.49;68.60;98127.00;5092741;28;20024;-46
2023/04/20 08:59:12;;;;;;;29.00;12.63;;;;;;;12.23;72.56;98123.75;5093058;28;20035;-46
2023/04/20 09:01:43;;;;;;;41.38;13.65;;;;;;;12.06;76.95;98130.69;5093984;28;20071;-47
2023/04/20 09:04:35;;;;;;;55.45;15.95;;;;;;;12.00;80.44;98132.38;5094052;28;20073;-48
2023/04/20 09:07:01;;;;;;;38.13;14.32;;;;;;;11.95;82.19;98138.31;5092743;28;20035;-48
2023/04/20 09:09:27;;;;;;;50.67;17.38;;;;;;;12.08;84.71;98133.88;5093868;28;20035;-48
2023/04/20 09:12:07;;;;;;;25.17;13.07;;;;;;;12.34;86.44;98119.56;5092419;28;20045;-48
2023/04/20 09:14:46;;;;;;;26.33;12.35;;;;;;;12.56;86.21;98117.97;5093639;28;20024;-48
2023/04/20 09:17:14;;;;;;;47.10;15.30;;;;;;;12.74;86.29;98118.94;5092616;28;20468;-48
2023/04/20 09:19:43;;;;;;;36.33;12.80;;;;;;;12.88;86.35;98108.97;5093618;28;20069;-48
2023/04/20 09:22:08;;;;;;;33.58;11.77;;;;;;;12.89;86.32;98119.25;5093587;28;20028;-48
2023/04/20 09:24:37;;;;;;;42.03;13.05;;;;;;;13.05;85.93;98116.97;5092264;28;20485;-48
2023/04/20 09:27:17;;;;;;;36.00;11.77;;;;;;;13.36;85.24;98103.44;5093678;28;20050;-48
2023/04/20 09:29:44;;;;;;;27.92;11.18;;;;;;;13.78;85.65;98107.66;5093417;28;20069;-48
2023/04/20 09:32:29;;;;;;;34.92;11.70;;;;;;;14.05;83.85;98104.47;5093204;28;20059;-49
2023/04/20 09:34:56;;;;;;;15.83;9.73;;;;;;;14.24;80.72;98113.78;5092098;28;20040;-49
2023/04/20 09:37:21;;;;;;;20.15;9.98;;;;;;;14.25;79.08;98110.09;5093284;28;20493;-47
2023/04/20 09:39:48;;;;;;;11.82;8.82;;;;;;;14.38;79.88;98114.28;5108944;28;20085;-47
2023/04/20 09:42:15;;;;;;;12.25;8.35;;;;;;;14.36;78.88;98121.63;5093188;28;20545;-47
2023/04/20 09:44:42;;;;;;;15.50;7.93;;;;;;;14.09;78.06;98127.50;5093089;28;20440;-47
2023/04/20 09:47:08;;;;;;;11.60;7.13;;;;;;;13.88;76.50;98128.16;5108685;28;20038;-47
2023/04/20 09:49:34;;;;;;;18.15;7.25;;;;;;;13.73;74.43;98123.41;5093151;28;20027;-47
2023/04/20 09:52:03;;;;;;;12.35;7.75;;;;;;;13.63;75.02;98128.50;5074829;28;20067;-47
2023/04/20 09:54:30;;;;;;;15.50;8.07;;;;;;;13.57;76.38;98132.84;5074857;28;20052;-47
2023/04/20 09:56:58;;;;;;;24.67;8.23;;;;;;;13.47;76.32;98132.66;5092890;28;20028;-47
2023/04/20 09:59:26;;;;;;;28.95;9.30;;;;;;;13.38;77.25;98133.00;5091588;28;20111;-47
2023/04/20 10:01:52;;;;;;;14.85;7.22;;;;;;;13.28;77.68;98143.31;5092847;28;20498;-47
2023/04/20 10:04:17;;;;;;;29.25;8.55;;;;;;;13.16;78.68;98138.03;5092676;28;20028;-47
2023/04/20 10:06:54;;;;;;;34.60;8.68;;;;;;;13.07;77.40;98143.88;5092766;28;20086;-47
2023/04/20 10:09:25;;;;;;;28.40;8.25;;;;;;;13.04;78.49;98136.44;5092643;28;20051;-47
2023/04/20 10:11:52;;;;;;;23.85;8.05;;;;;;;13.03;78.98;98143.53;5092738;28;20374;-47
2023/04/20 10:14:22;;;;;;;22.05;7.32;;;;;;;13.05;78.59;98148.59;5092639;28;20028;-47
2023/04/20 10:17:28;;;;;;;28.90;9.45;;;;;;;12.99;78.45;98151.09;5091258;28;20031;-47
2023/04/20 10:19:54;;;;;;;32.78;7.85;;;;;;;12.93;78.83;98148.56;5085344;28;20032;-47
2023/04/20 10:22:33;;;;;;;20.15;6.38;;;;;;;12.83;78.36;98149.13;5092482;28;20050;-47
2023/04/20 10:25:01;;;;;;;23.35;6.93;;;;;;;12.87;78.36;98157.41;5092347;28;20542;-47
2023/04/20 10:27:27;;;;;;;44.10;8.45;;;;;;;12.78;78.89;98155.09;5092632;28;20375;-47
2023/04/20 10:29:53;;;;;;;15.82;6.00;;;;;;;12.77;78.87;98156.13;5092334;28;20039;-47
2023/04/20 10:32:26;;;;;;;14.10;6.22;;;;;;;12.76;78.23;98156.38;5092128;28;20052;-47
2023/04/20 10:35:07;;;;;;;20.52;6.47;;;;;;;12.77;77.92;98165.84;5092394;28;20044;-47
2023/04/20 10:37:34;;;;;;;20.20;6.43;;;;;;;12.85;78.60;98162.09;5092604;28;20036;-47
2023/04/20 10:40:00;;;;;;;23.38;7.10;;;;;;;12.85;78.78;98156.81;5092490;28;20401;-47
2023/04/20 10:42:26;;;;;;;12.52;6.65;;;;;;;12.79;79.67;98154.06;5092132;28;20024;-46
2023/04/20 10:44:53;;;;;;;18.63;7.43;;;;;;;12.55;79.42;98145.31;5092107;28;20028;-46
2023/04/20 10:47:32;;;;;;;13.80;7.28;;;;;;;12.49;81.03;98148.84;5090816;28;20096;-47
2023/04/20 10:50:06;;;;;;;12.20;7.20;;;;;;;12.41;82.00;98138.66;5092142;28;20081;-46
2023/04/20 10:52:34;;;;;;;12.50;6.85;;;;;;;12.33;82.43;98134.50;5091979;28;20028;-47
2023/04/20 10:55:00;;;;;;;15.27;6.78;;;;;;;12.29;82.74;98125.47;5091981;28;20020;-46
2023/04/20 10:57:26;;;;;;;20.95;7.47;;;;;;;12.33;83.44;98125.81;5090843;28;20031;-47
2023/04/20 10:59:51;;;;;;;12.18;6.70;;;;;;;12.29;84.77;98127.31;5107564;28;20806;-47
2023/04/20 11:02:17;;;;;;;17.05;7.30;;;;;;;12.14;85.35;98133.00;5091906;28;20020;-47
2023/04/20 11:04:43;;;;;;;21.30;7.05;;;;;;;12.07;86.67;98137.53;5092066;28;20032;-46
2023/04/20 11:07:12;;;;;;;20.10;8.55;;;;;;;12.04;87.30;98148.50;5073760;28;20032;-47
2023/04/20 11:09:38;;;;;;;23.55;9.13;;;;;;;11.98;87.90;98166.78;5092149;28;20440;-48
2023/04/20 11:12:05;;;;;;;61.30;12.02;;;;;;;11.76;88.01;98174.28;5107478;28;20051;-48
2023/04/20 11:14:41;;;;;;;22.63;8.90;;;;;;;11.67;89.21;98180.06;5091846;28;20016;-48
2023/04/20 11:17:07;;;;;;;29.90;10.15;;;;;;;11.68;90.14;98177.22;5107419;28;20035;-47
2023/04/20 11:19:35;;;;;;;47.03;10.15;;;;;;;11.66;90.27;98176.63;5091840;28;20024;-47